Time;durP1;ratioP1;P1;durP2;ratioP2;P2;SDS_P1;SDS_P2;PMS_P1;PMS_P2;Temp;Humidity;BMP_temperature;BMP_pressure;BME280_temperature;BME280_humidity;BME280_pressure;Samples;Min_cycle;Max_cycle;Signal;HPM_P1;HPM_P2
2023/01/22 00:01:11;;;;;;;;;;;;;;;;;;5083241;28;20045;-66
2023/01/22 00:03:37;;;;;;;;;;;;;;;;;;5086647;28;19915;-67
2023/01/22 00:06:03;;;;;;;;;;;;;;;;;;5089719;28;19908;-65
2023/01/22 00:08:29;;;;;;;;;;;;;;;;;;5085491;28;19915;-65
2023/01/22 00:10:55;;;;;;;;;;;;;;;;;;5089316;28;19912;-65
2023/01/22 00:13:21;;;;;;;;;;;;;;;;;;5087110;28;19912;-64
2023/01/22 00:15:47;;;;;;;;;;;;;;;;;;5089429;28;19916;-65
2023/01/22 00:18:12;;;;;;;;;;;;;;;;;;5089127;28;19920;-63
2023/01/22 00:20:38;;;;;;;;;;;;;;;;;;5089320;28;20363;-63
2023/01/22 00:23:04;;;;;;;;;;;;;;;;;;5088996;28;19940;-63
2023/01/22 00:25:30;;;;;;;;;;;;;;;;;;5088560;28;19916;-64
2023/01/22 00:27:56;;;;;;;;;;;;;;;;;;5089306;28;19958;-65
2023/01/22 00:30:22;;;;;;;;;;;;;;;;;;5089067;28;20506;-65
2023/01/22 00:32:48;;;;;;;;;;;;;;;;;;5089017;28;19954;-62
2023/01/22 00:35:14;;;;;;;;;;;;;;;;;;5089188;28;20012;-64
2023/01/22 00:37:40;;;;;;;;;;;;;;;;;;5088974;28;20364;-64
2023/01/22 00:40:06;;;;;;;;;;;;;;;;;;5088514;28;19924;-67
2023/01/22 00:42:32;;;;;;;;;;;;;;;;;;5089012;28;20384;-65
2023/01/22 00:45:00;;;;;;;;;;;;;;;;;;5088555;28;19919;-66
2023/01/22 00:47:26;;;;;;;;;;;;;;;;;;5085871;28;19924;-66
2023/01/22 00:49:52;;;;;;;;;;;;;;;;;;5085451;28;20332;-66
2023/01/22 00:52:18;;;;;;;;;;;;;;;;;;5088802;28;19912;-66
2023/01/22 00:54:44;;;;;;;;;;;;;;;;;;5088444;28;19953;-66
2023/01/22 00:57:10;;;;;;;;;;;;;;;;;;5088592;28;19919;-66
2023/01/22 00:59:36;;;;;;;;;;;;;;;;;;5088525;28;19962;-65
2023/01/22 01:02:02;;;;;;;;;;;;;;;;;;5088423;28;19912;-66
2023/01/22 01:04:28;;;;;;;;;;;;;;;;;;5088778;28;19920;-65
2023/01/22 01:06:54;;;;;;;;;;;;;;;;;;5088961;28;20386;-65
2023/01/22 01:09:20;;;;;;;;;;;;;;;;;;5088282;28;20359;-65
2023/01/22 01:11:45;;;;;;;;;;;;;;;;;;5089530;28;19964;-67
2023/01/22 01:14:11;;;;;;;;;;;;;;;;;;5092682;28;20399;-67
2023/01/22 01:16:37;;;;;;;;;;;;;;;;;;5090787;28;20387;-66
2023/01/22 01:19:03;;;;;;;;;;;;;;;;;;5086316;28;19920;-65
2023/01/22 01:21:29;;;;;;;;;;;;;;;;;;5092364;28;20664;-64
2023/01/22 01:23:55;;;;;;;;;;;;;;;;;;5091872;28;20419;-65
2023/01/22 01:26:21;;;;;;;;;;;;;;;;;;5092349;28;19908;-64
2023/01/22 01:28:47;;;;;;;;;;;;;;;;;;5092185;28;19915;-64
2023/01/22 01:31:13;;;;;;;;;;;;;;;;;;5091508;28;19916;-66
2023/01/22 01:33:39;;;;;;;;;;;;;;;;;;5092122;28;19919;-64
2023/01/22 01:36:05;;;;;;;;;;;;;;;;;;5091929;28;19919;-66
2023/01/22 01:38:30;;;;;;;;;;;;;;;;;;5091588;28;19920;-65
2023/01/22 01:40:56;;;;;;;;;;;;;;;;;;5091891;28;20027;-66
2023/01/22 01:43:22;;;;;;;;;;;;;;;;;;5091825;28;20462;-66
2023/01/22 01:45:48;;;;;;;;;;;;;;;;;;5091610;28;19961;-66
2023/01/22 01:48:14;;;;;;;;;;;;;;;;;;5092351;28;19912;-67
2023/01/22 01:50:40;;;;;;;;;;;;;;;;;;5091802;28;20628;-66
2023/01/22 01:53:06;;;;;;;;;;;;;;;;;;5091423;28;19935;-64
2023/01/22 01:55:32;;;;;;;;;;;;;;;;;;5073444;28;19912;-65
2023/01/22 01:57:58;;;;;;;;;;;;;;;;;;5091423;28;19942;-66
2023/01/22 02:00:23;;;;;;;;;;;;;;;;;;5091796;28;19908;-65
2023/01/22 02:02:49;;;;;;;;;;;;;;;;;;5091715;28;19922;-64
2023/01/22 02:05:19;;;;;;;;;;;;;;;;;;5091435;28;20433;-66
2023/01/22 02:07:45;;;;;;;;;;;;;;;;;;5091536;28;19912;-65
2023/01/22 02:10:11;;;;;;;;;;;;;;;;;;5091548;28;19912;-64
2023/01/22 02:12:37;;;;;;;;;;;;;;;;;;5091061;28;19920;-66
2023/01/22 02:15:02;;;;;;;;;;;;;;;;;;5091445;28;19942;-65
2023/01/22 02:17:28;;;;;;;;;;;;;;;;;;5091117;28;20292;-66
2023/01/22 02:19:54;;;;;;;;;;;;;;;;;;5091734;28;19912;-64
2023/01/22 02:22:20;;;;;;;;;;;;;;;;;;5090614;28;20322;-63
2023/01/22 02:24:46;;;;;;;;;;;;;;;;;;5091539;28;19908;-64
2023/01/22 02:27:12;;;;;;;;;;;;;;;;;;5091090;28;19918;-66
2023/01/22 02:29:38;;;;;;;;;;;;;;;;;;5091502;28;20577;-65
2023/01/22 02:32:04;;;;;;;;;;;;;;;;;;5091347;28;20000;-64
2023/01/22 02:34:30;;;;;;;;;;;;;;;;;;5091079;28;20376;-63
2023/01/22 02:36:55;;;;;;;;;;;;;;;;;;5090690;28;19908;-63
2023/01/22 02:39:21;;;;;;;;;;;;;;;;;;5090516;28;20341;-65
2023/01/22 02:41:47;;;;;;;;;;;;;;;;;;5090662;28;20036;-65
2023/01/22 02:44:13;;;;;;;;;;;;;;;;;;5090692;28;19982;-64
2023/01/22 02:46:39;;;;;;;;;;;;;;;;;;5090934;28;19912;-64
2023/01/22 02:49:05;;;;;;;;;;;;;;;;;;5089698;28;19944;-66
2023/01/22 02:51:31;;;;;;;;;;;;;;;;;;5090518;28;19908;-64
2023/01/22 02:53:57;;;;;;;;;;;;;;;;;;5090490;28;20342;-65
2023/01/22 02:56:22;;;;;;;;;;;;;;;;;;5090596;28;20110;-65
2023/01/22 02:58:48;;;;;;;;;;;;;;;;;;5090372;28;19920;-63
2023/01/22 03:01:19;;;;;;;;;;;;;;;;;;5090581;28;19920;-66
2023/01/22 03:03:45;;;;;;;;;;;;;;;;;;5090997;28;19912;-66
2023/01/22 03:06:10;;;;;;;;;;;;;;;;;;5090153;28;20296;-66
2023/01/22 03:08:36;;;;;;;;;;;;;;;;;;5090118;28;20350;-66
2023/01/22 03:11:02;;;;;;;;;;;;;;;;;;5090340;28;19912;-65
2023/01/22 03:21:42;;;;;;;;;;;;;;;;;;5090574;28;19918;-65
2023/01/22 03:24:08;;;;;;;;;;;;;;;;;;5090253;28;19908;-67
2023/01/22 03:26:34;;;;;;;;;;;;;;;;;;5089597;28;19946;-66
2023/01/22 03:29:00;;;;;;;;;;;;;;;;;;5089804;28;20399;-65
2023/01/22 03:31:26;;;;;;;;;;;;;;;;;;5089839;28;19973;-64
2023/01/22 03:33:54;;;;;;;;;;;;;;;;;;5088656;28;20135;-65
2023/01/22 03:36:20;;;;;;;;;;;;;;;;;;5089452;28;19915;-66
2023/01/22 03:38:46;;;;;;;;;;;;;;;;;;5089116;28;19920;-64
2023/01/22 03:41:11;;;;;;;;;;;;;;;;;;5089426;28;19924;-66
2023/01/22 03:43:37;;;;;;;;;;;;;;;;;;5089960;28;19951;-64
2023/01/22 03:46:03;;;;;;;;;;;;;;;;;;5089588;28;19912;-65
2023/01/22 03:48:29;;;;;;;;;;;;;;;;;;5089723;28;19969;-65
2023/01/22 03:50:55;;;;;;;;;;;;;;;;;;5090077;28;19998;-65
2023/01/22 03:53:21;;;;;;;;;;;;;;;;;;5089220;28;20342;-64
2023/01/22 03:55:47;;;;;;;;;;;;;;;;;;5089346;28;19912;-64
2023/01/22 03:58:13;;;;;;;;;;;;;;;;;;5089795;28;20358;-66
2023/01/22 04:00:39;;;;;;;;;;;;;;;;;;5089355;28;20053;-65
2023/01/22 04:03:04;;;;;;;;;;;;;;;;;;5088958;28;19919;-65
2023/01/22 04:05:30;;;;;;;;;;;;;;;;;;5089208;28;20291;-64
2023/01/22 04:07:56;;;;;;;;;;;;;;;;;;5089435;28;19954;-65
2023/01/22 04:10:22;;;;;;;;;;;;;;;;;;5089528;28;20454;-66
2023/01/22 04:12:48;;;;;;;;;;;;;;;;;;5089721;28;19918;-64
2023/01/22 04:15:14;;;;;;;;;;;;;;;;;;5089297;28;20022;-65
2023/01/22 04:17:40;;;;;;;;;;;;;;;;;;5088783;28;19998;-65
2023/01/22 04:20:06;;;;;;;;;;;;;;;;;;5089433;28;19916;-64
2023/01/22 04:22:32;;;;;;;;;;;;;;;;;;5089005;28;20010;-63
2023/01/22 04:24:57;;;;;;;;;;;;;;;;;;5089092;28;20019;-65
2023/01/22 04:27:23;;;;;;;;;;;;;;;;;;5089147;28;19912;-65
2023/01/22 04:29:49;;;;;;;;;;;;;;;;;;5089376;28;19915;-65
2023/01/22 04:32:15;;;;;;;;;;;;;;;;;;5088908;28;19954;-64
2023/01/22 04:34:43;;;;;;;;;;;;;;;;;;5089367;28;19908;-64
2023/01/22 04:37:08;;;;;;;;;;;;;;;;;;5089320;28;19995;-64
2023/01/22 04:39:34;;;;;;;;;;;;;;;;;;5088868;28;20026;-65
2023/01/22 04:42:00;;;;;;;;;;;;;;;;;;5089083;28;19912;-65
2023/01/22 04:44:26;;;;;;;;;;;;;;;;;;5089717;28;19958;-65
2023/01/22 04:46:52;;;;;;;;;;;;;;;;;;5091487;28;19915;-64
2023/01/22 04:49:18;;;;;;;;;;;;;;;;;;5093382;28;19915;-65
2023/01/22 04:51:44;;;;;;;;;;;;;;;;;;5090342;28;19985;-64
2023/01/22 04:54:10;;;;;;;;;;;;;;;;;;5092712;28;20070;-63
2023/01/22 04:56:36;;;;;;;;;;;;;;;;;;5093023;28;19912;-64
2023/01/22 04:59:01;;;;;;;;;;;;;;;;;;5093586;28;20013;-65
2023/01/22 05:01:27;;;;;;;;;;;;;;;;;;5092347;28;20038;-64
2023/01/22 05:03:53;;;;;;;;;;;;;;;;;;5074930;28;19912;-65
2023/01/22 05:06:19;;;;;;;;;;;;;;;;;;5092700;28;20261;-63
2023/01/22 05:08:45;;;;;;;;;;;;;;;;;;5093060;28;20413;-67
2023/01/22 05:11:11;;;;;;;;;;;;;;;;;;5092556;28;19912;-66
2023/01/22 05:13:37;;;;;;;;;;;;;;;;;;5092582;28;19934;-65
2023/01/22 05:16:03;;;;;;;;;;;;;;;;;;5092020;28;20006;-64
2023/01/22 05:18:29;;;;;;;;;;;;;;;;;;5093199;28;19917;-62
2023/01/22 05:20:54;;;;;;;;;;;;;;;;;;5090103;28;19919;-64
2023/01/22 05:23:20;;;;;;;;;;;;;;;;;;5074026;28;20354;-65
2023/01/22 05:25:46;;;;;;;;;;;;;;;;;;5092583;28;20326;-66
2023/01/22 05:28:12;;;;;;;;;;;;;;;;;;5092644;28;19915;-66
2023/01/22 05:30:38;;;;;;;;;;;;;;;;;;5092098;28;19912;-65
2023/01/22 05:33:04;;;;;;;;;;;;;;;;;;5092288;28;19915;-65
2023/01/22 05:35:30;;;;;;;;;;;;;;;;;;5091958;28;19969;-66
2023/01/22 05:37:56;;;;;;;;;;;;;;;;;;5092036;28;19912;-65
2023/01/22 05:40:22;;;;;;;;;;;;;;;;;;5092612;28;19924;-66
2023/01/22 05:42:48;;;;;;;;;;;;;;;;;;5091599;28;19934;-66
2023/01/22 05:45:14;;;;;;;;;;;;;;;;;;5091772;28;19915;-67
2023/01/22 05:47:39;;;;;;;;;;;;;;;;;;5090451;28;20295;-67
2023/01/22 05:50:05;;;;;;;;;;;;;;;;;;5085394;28;20053;-66
2023/01/22 05:52:31;;;;;;;;;;;;;;;;;;5092209;28;19954;-66
2023/01/22 05:54:58;;;;;;;;;;;;;;;;;;5091950;28;19912;-68
2023/01/22 05:57:26;;;;;;;;;;;;;;;;;;5090270;28;19947;-66
2023/01/22 05:59:52;;;;;;;;;;;;;;;;;;5091746;28;19912;-66
2023/01/22 06:02:18;;;;;;;;;;;;;;;;;;5091743;28;19912;-67
2023/01/22 06:04:44;;;;;;;;;;;;;;;;;;5091573;28;20368;-67
2023/01/22 06:07:10;;;;;;;;;;;;;;;;;;5091521;28;19908;-68
2023/01/22 06:09:36;;;;;;;;;;;;;;;;;;5091424;28;19916;-67
2023/01/22 06:12:02;;;;;;;;;;;;;;;;;;5091240;28;20439;-68
2023/01/22 06:14:27;;;;;;;;;;;;;;;;;;5091291;28;19913;-67
2023/01/22 06:16:53;;;;;;;;;;;;;;;;;;5091309;28;19912;-67
2023/01/22 06:19:19;;;;;;;;;;;;;;;;;;5091365;28;19920;-67
2023/01/22 06:21:45;;;;;;;;;;;;;;;;;;5091319;28;20402;-67
2023/01/22 06:24:11;;;;;;;;;;;;;;;;;;5091100;28;19912;-65
2023/01/22 06:26:37;;;;;;;;;;;;;;;;;;5090860;28;20513;-64
2023/01/22 06:29:03;;;;;;;;;;;;;;;;;;5088307;28;20018;-64
2023/01/22 06:31:30;;;;;;;;;;;;;;;;;;5091273;28;19915;-64
2023/01/22 06:33:56;;;;;;;;;;;;;;;;;;5090556;28;19908;-65
2023/01/22 06:36:22;;;;;;;;;;;;;;;;;;5090992;28;19912;-64
2023/01/22 06:38:47;;;;;;;;;;;;;;;;;;5090887;28;19920;-66
2023/01/22 06:41:13;;;;;;;;;;;;;;;;;;5090725;28;19999;-66
2023/01/22 06:43:39;;;;;;;;;;;;;;;;;;5090356;28;20739;-65
2023/01/22 06:46:05;;;;;;;;;;;;;;;;;;5090232;28;19912;-64
2023/01/22 06:48:31;;;;;;;;;;;;;;;;;;5090854;28;19912;-64
2023/01/22 06:50:57;;;;;;;;;;;;;;;;;;5088972;28;20293;-66
2023/01/22 06:53:23;;;;;;;;;;;;;;;;;;5090597;28;20002;-65
2023/01/22 06:55:49;;;;;;;;;;;;;;;;;;5090417;28;20423;-65
2023/01/22 06:58:15;;;;;;;;;;;;;;;;;;5090256;28;19920;-65
2023/01/22 07:00:41;;;;;;;;;;;;;;;;;;5090140;28;20273;-66
2023/01/22 07:03:07;;;;;;;;;;;;;;;;;;5090178;28;20261;-65
2023/01/22 07:05:33;;;;;;;;;;;;;;;;;;5090382;28;19908;-65
2023/01/22 07:07:59;;;;;;;;;;;;;;;;;;5090102;28;19920;-65
2023/01/22 07:10:25;;;;;;;;;;;;;;;;;;5089934;28;19986;-64
2023/01/22 07:12:51;;;;;;;;;;;;;;;;;;5089476;28;19912;-64
2023/01/22 07:15:17;;;;;;;;;;;;;;;;;;5090246;28;19912;-65
2023/01/22 07:17:43;;;;;;;;;;;;;;;;;;5090063;28;19920;-64
2023/01/22 07:20:09;;;;;;;;;;;;;;;;;;5090118;28;20451;-63
2023/01/22 07:22:35;;;;;;;;;;;;;;;;;;5089983;28;19919;-64
2023/01/22 07:25:00;;;;;;;;;;;;;;;;;;5089690;28;19908;-65
2023/01/22 07:27:26;;;;;;;;;;;;;;;;;;5089580;28;19934;-65
2023/01/22 07:29:52;;;;;;;;;;;;;;;;;;5089981;28;19916;-64
2023/01/22 07:32:18;;;;;;;;;;;;;;;;;;5089815;28;19912;-65
2023/01/22 07:34:44;;;;;;;;;;;;;;;;;;5090105;28;20677;-66
2023/01/22 07:37:10;;;;;;;;;;;;;;;;;;5089506;28;20300;-68
2023/01/22 07:39:36;;;;;;;;;;;;;;;;;;5090041;28;20082;-67
2023/01/22 07:42:02;;;;;;;;;;;;;;;;;;5089340;28;19919;-66
2023/01/22 07:44:28;;;;;;;;;;;;;;;;;;5089370;28;20344;-65
2023/01/22 07:46:54;;;;;;;;;;;;;;;;;;5089516;28;19957;-66
2023/01/22 07:49:20;;;;;;;;;;;;;;;;;;5089349;28;20011;-65
2023/01/22 07:51:46;;;;;;;;;;;;;;;;;;5089190;28;20658;-65
2023/01/22 07:54:12;;;;;;;;;;;;;;;;;;5089447;28;19919;-66
2023/01/22 07:56:38;;;;;;;;;;;;;;;;;;5088184;28;19909;-66
2023/01/22 07:59:04;;;;;;;;;;;;;;;;;;5088544;28;19920;-65
2023/01/22 08:01:30;;;;;;;;;;;;;;;;;;5088504;28;19919;-64
2023/01/22 08:03:56;;;;;;;;;;;;;;;;;;5088889;28;20656;-63
2023/01/22 08:06:22;;;;;;;;;;;;;;;;;;5087866;28;19923;-60
2023/01/22 08:08:48;;;;;;;;;;;;;;;;;;5089098;28;20280;-60
2023/01/22 08:11:14;;;;;;;;;;;;;;;;;;5083796;28;19912;-59
2023/01/22 08:13:40;;;;;;;;;;;;;;;;;;5087580;28;19923;-59
2023/01/22 08:16:08;;;;;;;;;;;;;;;;;;5075937;28;19995;-60
2023/01/22 08:18:33;;;;;;;;;;;;;;;;;;5086764;28;19920;-60
2023/01/22 08:21:02;;;;;;;;;;;;;;;;;;5087686;28;19908;-59
2023/01/22 08:23:28;;;;;;;;;;;;;;;;;;5087903;28;20395;-60
2023/01/22 08:25:54;;;;;;;;;;;;;;;;;;5086986;28;19912;-60
2023/01/22 08:28:20;;;;;;;;;;;;;;;;;;5087794;28;20002;-59
2023/01/22 08:30:46;;;;;;;;;;;;;;;;;;5077309;28;19916;-60
2023/01/22 08:33:12;;;;;;;;;;;;;;;;;;5088329;28;19969;-60
2023/01/22 08:35:38;;;;;;;;;;;;;;;;;;5088338;28;20238;-60
2023/01/22 08:38:04;;;;;;;;;;;;;;;;;;5087897;28;19916;-60
2023/01/22 08:40:30;;;;;;;;;;;;;;;;;;5088436;28;19924;-60
2023/01/22 08:42:56;;;;;;;;;;;;;;;;;;5088105;28;19912;-61
2023/01/22 08:45:22;;;;;;;;;;;;;;;;;;5088347;28;19912;-60
2023/01/22 08:47:48;;;;;;;;;;;;;;;;;;5088687;28;19908;-60
2023/01/22 08:50:14;;;;;;;;;;;;;;;;;;5086633;28;19916;-58
2023/01/22 08:52:39;;;;;;;;;;;;;;;;;;5079284;28;19923;-60
2023/01/22 08:55:08;;;;;;;;;;;;;;;;;;5085792;28;20372;-56
2023/01/22 08:57:34;;;;;;;;;;;;;;;;;;5085288;28;19947;-60
2023/01/22 09:00:00;;;;;;;;;;;;;;;;;;5082836;28;20003;-60
2023/01/22 09:02:26;;;;;;;;;;;;;;;;;;5084135;28;20424;-60
2023/01/22 09:04:52;;;;;;;;;;;;;;;;;;5081886;28;19916;-60
2023/01/22 09:07:18;;;;;;;;;;;;;;;;;;5083850;28;19923;-61
2023/01/22 09:09:44;;;;;;;;;;;;;;;;;;5077425;28;19913;-60
2023/01/22 09:12:10;;;;;;;;;;;;;;;;;;5085726;28;19958;-59
2023/01/22 09:14:36;;;;;;;;;;;;;;;;;;5083560;28;19927;-61
2023/01/22 09:17:02;;;;;;;;;;;;;;;;;;5085698;28;19928;-60
2023/01/22 09:19:27;;;;;;;;;;;;;;;;;;5084839;28;20038;-59
2023/01/22 09:21:53;;;;;;;;;;;;;;;;;;5081138;28;20331;-60
2023/01/22 09:24:19;;;;;;;;;;;;;;;;;;5082792;28;19912;-59
2023/01/22 09:26:45;;;;;;;;;;;;;;;;;;5080784;28;19917;-59
2023/01/22 09:29:11;;;;;;;;;;;;;;;;;;5081253;28;19912;-60
2023/01/22 09:31:37;;;;;;;;;;;;;;;;;;5082814;28;20391;-60
2023/01/22 09:34:03;;;;;;;;;;;;;;;;;;5085278;28;19916;-60
2023/01/22 09:36:29;;;;;;;;;;;;;;;;;;5085300;28;19951;-60
2023/01/22 09:38:55;;;;;;;;;;;;;;;;;;5086009;28;19946;-58
2023/01/22 09:41:21;;;;;;;;;;;;;;;;;;5088722;28;19924;-62
2023/01/22 09:43:46;;;;;;;;;;;;;;;;;;5088364;28;20005;-60
2023/01/22 09:46:12;;;;;;;;;;;;;;;;;;5087289;28;19966;-59
2023/01/22 09:48:38;;;;;;;;;;;;;;;;;;5087438;28;19922;-60
2023/01/22 09:51:04;;;;;;;;;;;;;;;;;;5083778;28;19993;-60
2023/01/22 09:53:30;;;;;;;;;;;;;;;;;;5087014;28;19916;-61
2023/01/22 09:55:56;;;;;;;;;;;;;;;;;;5086779;28;19919;-60
2023/01/22 09:58:22;;;;;;;;;;;;;;;;;;5089428;28;19927;-60
2023/01/22 10:00:48;;;;;;;;;;;;;;;;;;5088861;28;19916;-60
2023/01/22 10:03:14;;;;;;;;;;;;;;;;;;5089397;28;20380;-60
2023/01/22 10:05:41;;;;;;;;;;;;;;;;;;5088301;28;19923;-59
2023/01/22 10:08:07;;;;;;;;;;;;;;;;;;5088543;28;19920;-60
2023/01/22 10:10:33;;;;;;;;;;;;;;;;;;5086797;28;19991;-60
2023/01/22 10:12:59;;;;;;;;;;;;;;;;;;5088069;28;20407;-61
2023/01/22 10:15:25;;;;;;;;;;;;;;;;;;5086185;28;20028;-60
2023/01/22 10:17:51;;;;;;;;;;;;;;;;;;5089155;28;19920;-61
2023/01/22 10:20:19;;;;;;;;;;;;;;;;;;5088414;28;19936;-61
2023/01/22 10:22:47;;;;;;;;;;;;;;;;;;5088791;28;19978;-59
2023/01/22 10:25:13;;;;;;;;;;;;;;;;;;5086496;28;19943;-60
2023/01/22 10:27:39;;;;;;;;;;;;;;;;;;5088926;28;19991;-60
2023/01/22 10:30:05;;;;;;;;;;;;;;;;;;5087380;28;19999;-61
2023/01/22 10:32:31;;;;;;;;;;;;;;;;;;5086513;28;19924;-61
2023/01/22 10:34:57;;;;;;;;;;;;;;;;;;5087790;28;20003;-61
2023/01/22 10:37:23;;;;;;;;;;;;;;;;;;5086215;28;20373;-61
2023/01/22 10:39:49;;;;;;;;;;;;;;;;;;5088347;28;19921;-60
2023/01/22 10:42:15;;;;;;;;;;;;;;;;;;5086372;28;19928;-60
2023/01/22 10:44:41;;;;;;;;;;;;;;;;;;5083760;28;19923;-59
2023/01/22 10:47:07;;;;;;;;;;;;;;;;;;5084669;28;19976;-61
2023/01/22 10:49:33;;;;;;;;;;;;;;;;;;5086804;28;19912;-61
2023/01/22 10:51:59;;;;;;;;;;;;;;;;;;5087497;28;19936;-61
2023/01/22 10:54:25;;;;;;;;;;;;;;;;;;5088400;28;19980;-61
2023/01/22 10:56:50;;;;;;;;;;;;;;;;;;5085910;28;20489;-61
2023/01/22 10:59:16;;;;;;;;;;;;;;;;;;5087752;28;20367;-60
2023/01/22 11:01:42;;;;;;;;;;;;;;;;;;5086417;28;20377;-60
2023/01/22 11:04:08;;;;;;;;;;;;;;;;;;5085423;28;19916;-61
2023/01/22 11:06:34;;;;;;;;;;;;;;;;;;5087026;28;19919;-60
2023/01/22 11:09:00;;;;;;;;;;;;;;;;;;5082884;28;20256;-62
2023/01/22 11:11:26;;;;;;;;;;;;;;;;;;5086950;28;19915;-60
2023/01/22 11:13:52;;;;;;;;;;;;;;;;;;5087454;28;19923;-59
2023/01/22 11:16:18;;;;;;;;;;;;;;;;;;5088557;28;20524;-60
2023/01/22 11:18:44;;;;;;;;;;;;;;;;;;5084952;28;19969;-60
2023/01/22 11:21:09;;;;;;;;;;;;;;;;;;5087705;28;19916;-60
2023/01/22 11:23:35;;;;;;;;;;;;;;;;;;5085910;28;19908;-61
2023/01/22 11:26:01;;;;;;;;;;;;;;;;;;5087880;28;19916;-61
2023/01/22 11:28:28;;;;;;;;;;;;;;;;;;5085388;28;19908;-60
2023/01/22 11:30:53;;;;;;;;;;;;;;;;;;5083749;28;19959;-60
2023/01/22 11:33:19;;;;;;;;;;;;;;;;;;5085311;28;20016;-60
2023/01/22 11:35:45;;;;;;;;;;;;;;;;;;5087248;28;20540;-61
2023/01/22 11:38:11;;;;;;;;;;;;;;;;;;5087430;28;19920;-59
2023/01/22 11:40:37;;;;;;;;;;;;;;;;;;5084444;28;20411;-60
2023/01/22 11:43:03;;;;;;;;;;;;;;;;;;5069076;28;19922;-62
2023/01/22 11:45:29;;;;;;;;;;;;;;;;;;5060002;28;20296;-63
2023/01/22 11:47:55;;;;;;;;;;;;;;;;;;5084500;28;19943;-62
2023/01/22 11:50:20;;;;;;;;;;;;;;;;;;5083875;28;19922;-61
2023/01/22 11:52:46;;;;;;;;;;;;;;;;;;5086728;28;20011;-60
2023/01/22 11:55:12;;;;;;;;;;;;;;;;;;5078298;28;20809;-59
2023/01/22 11:57:38;;;;;;;;;;;;;;;;;;5082699;28;19919;-61
2023/01/22 12:00:04;;;;;;;;;;;;;;;;;;5082469;28;19921;-61
2023/01/22 12:02:30;;;;;;;;;;;;;;;;;;5087194;28;19947;-60
2023/01/22 12:04:56;;;;;;;;;;;;;;;;;;5084508;28;19924;-60
2023/01/22 12:07:22;;;;;;;;;;;;;;;;;;5087507;28;19916;-60
2023/01/22 12:09:48;;;;;;;;;;;;;;;;;;5085985;28;19912;-60
2023/01/22 12:12:14;;;;;;;;;;;;;;;;;;5087528;28;19919;-60
2023/01/22 12:14:39;;;;;;;;;;;;;;;;;;5084755;28;19919;-61
2023/01/22 12:17:08;;;;;;;;;;;;;;;;;;5086165;28;19943;-60
2023/01/22 12:19:34;;;;;;;;;;;;;;;;;;5084629;28;19920;-61
2023/01/22 12:22:00;;;;;;;;;;;;;;;;;;5086175;28;19927;-60
2023/01/22 12:24:26;;;;;;;;;;;;;;;;;;5085626;28;19915;-59
2023/01/22 12:26:52;;;;;;;;;;;;;;;;;;5086889;28;20064;-61
2023/01/22 12:29:18;;;;;;;;;;;;;;;;;;5083875;28;20365;-61
2023/01/22 12:31:44;;;;;;;;;;;;;;;;;;5085826;28;19916;-62
2023/01/22 12:34:10;;;;;;;;;;;;;;;;;;5085139;28;20014;-61
2023/01/22 12:36:36;;;;;;;;;;;;;;;;;;5084302;28;19991;-60
2023/01/22 12:39:02;;;;;;;;;;;;;;;;;;5086332;28;20490;-61
2023/01/22 12:41:28;;;;;;;;;;;;;;;;;;5084143;28;19928;-61
2023/01/22 12:43:54;;;;;;;;;;;;;;;;;;5086543;28;19913;-61
2023/01/22 12:46:20;;;;;;;;;;;;;;;;;;5084922;28;19918;-58
2023/01/22 12:48:46;;;;;;;;;;;;;;;;;;5086184;28;19920;-61
2023/01/22 12:51:12;;;;;;;;;;;;;;;;;;5084582;28;20031;-61
2023/01/22 12:53:38;;;;;;;;;;;;;;;;;;5086913;28;20367;-62
2023/01/22 12:56:04;;;;;;;;;;;;;;;;;;5077967;28;19916;-61
2023/01/22 12:58:30;;;;;;;;;;;;;;;;;;5085946;28;20461;-60
2023/01/22 13:00:56;;;;;;;;;;;;;;;;;;5084076;28;20384;-61
2023/01/22 13:03:23;;;;;;;;;;;;;;;;;;5081442;28;19916;-60
2023/01/22 13:05:49;;;;;;;;;;;;;;;;;;5080669;28;20455;-60
2023/01/22 13:08:15;;;;;;;;;;;;;;;;;;5082795;28;20011;-60
2023/01/22 13:10:41;;;;;;;;;;;;;;;;;;5087647;28;19912;-60
2023/01/22 13:13:06;;;;;;;;;;;;;;;;;;5089029;28;20375;-61
2023/01/22 13:15:32;;;;;;;;;;;;;;;;;;5090072;28;19936;-61
2023/01/22 13:17:58;;;;;;;;;;;;;;;;;;5089689;28;20384;-60
2023/01/22 13:20:26;;;;;;;;;;;;;;;;;;5090383;28;19923;-61
2023/01/22 13:22:53;;;;;;;;;;;;;;;;;;5086779;28;19912;-59
2023/01/22 13:25:19;;;;;;;;;;;;;;;;;;5090014;28;19916;-62
2023/01/22 13:27:45;;;;;;;;;;;;;;;;;;5083549;28;19916;-61
2023/01/22 13:30:11;;;;;;;;;;;;;;;;;;5090349;28;19912;-60
2023/01/22 13:32:37;;;;;;;;;;;;;;;;;;5082530;28;20003;-61
2023/01/22 13:35:03;;;;;;;;;;;;;;;;;;5089711;28;20003;-60
2023/01/22 13:37:29;;;;;;;;;;;;;;;;;;5087864;28;19919;-61
2023/01/22 13:39:55;;;;;;;;;;;;;;;;;;5086188;28;19933;-60
2023/01/22 13:42:23;;;;;;;;;;;;;;;;;;5085115;28;20270;-60
2023/01/22 13:44:49;;;;;;;;;;;;;;;;;;5088547;28;19908;-59
2023/01/22 13:47:15;;;;;;;;;;;;;;;;;;5088888;28;19912;-62
2023/01/22 13:49:41;;;;;;;;;;;;;;;;;;5089520;28;19944;-61
2023/01/22 13:52:07;;;;;;;;;;;;;;;;;;5089683;28;20449;-61
2023/01/22 13:54:33;;;;;;;;;;;;;;;;;;5087841;28;19930;-61
2023/01/22 13:56:58;;;;;;;;;;;;;;;;;;5088714;28;19919;-61
2023/01/22 13:59:26;;;;;;;;;;;;;;;;;;5084669;28;19974;-62
2023/01/22 14:01:52;;;;;;;;;;;;;;;;;;5089834;28;19912;-60
2023/01/22 14:04:18;;;;;;;;;;;;;;;;;;5089195;28;20281;-61
2023/01/22 14:06:44;;;;;;;;;;;;;;;;;;5065397;28;19962;-61
2023/01/22 14:09:09;;;;;;;;;;;;;;;;;;5085952;28;19912;-60
2023/01/22 14:11:35;;;;;;;;;;;;;;;;;;5089408;28;19912;-59
2023/01/22 14:14:02;;;;;;;;;;;;;;;;;;5088198;28;20343;-61
2023/01/22 14:16:28;;;;;;;;;;;;;;;;;;5088985;28;19908;-62
2023/01/22 14:18:54;;;;;;;;;;;;;;;;;;5086517;28;19946;-62
2023/01/22 14:21:20;;;;;;;;;;;;;;;;;;5088636;28;20395;-62
2023/01/22 14:23:46;;;;;;;;;;;;;;;;;;5086581;28;19999;-60
2023/01/22 14:26:12;;;;;;;;;;;;;;;;;;5086926;28;20538;-62
2023/01/22 14:28:38;;;;;;;;;;;;;;;;;;5089048;28;19912;-60
2023/01/22 14:31:04;;;;;;;;;;;;;;;;;;5085539;28;19961;-61
2023/01/22 14:33:30;;;;;;;;;;;;;;;;;;5087692;28;19953;-61
2023/01/22 14:35:55;;;;;;;;;;;;;;;;;;5088705;28;19916;-60
2023/01/22 14:38:21;;;;;;;;;;;;;;;;;;5087407;28;20308;-61
2023/01/22 14:40:47;;;;;;;;;;;;;;;;;;5085558;28;19924;-60
2023/01/22 14:43:13;;;;;;;;;;;;;;;;;;5088237;28;20027;-62
2023/01/22 14:45:39;;;;;;;;;;;;;;;;;;5083143;28;19916;-62
2023/01/22 14:48:05;;;;;;;;;;;;;;;;;;5088890;28;19972;-61
2023/01/22 14:50:31;;;;;;;;;;;;;;;;;;5086904;28;20391;-61
2023/01/22 14:52:57;;;;;;;;;;;;;;;;;;5088119;28;19912;-60
2023/01/22 14:55:23;;;;;;;;;;;;;;;;;;5085671;28;20007;-61
2023/01/22 14:57:49;;;;;;;;;;;;;;;;;;5088021;28;19959;-60
2023/01/22 15:00:14;;;;;;;;;;;;;;;;;;5088662;28;20014;-61
2023/01/22 15:02:40;;;;;;;;;;;;;;;;;;5088634;28;19992;-61
2023/01/22 15:05:06;;;;;;;;;;;;;;;;;;5085519;28;20302;-61
2023/01/22 15:07:32;;;;;;;;;;;;;;;;;;5088526;28;19912;-62
2023/01/22 15:09:58;;;;;;;;;;;;;;;;;;5086231;28;19912;-60
2023/01/22 15:12:24;;;;;;;;;;;;;;;;;;5088315;28;20437;-60
2023/01/22 15:14:50;;;;;;;;;;;;;;;;;;5087705;28;19942;-61
2023/01/22 15:17:16;;;;;;;;;;;;;;;;;;5085628;28;19916;-61
2023/01/22 15:19:42;;;;;;;;;;;;;;;;;;5087332;28;19920;-61
2023/01/22 15:22:07;;;;;;;;;;;;;;;;;;5087113;28;19928;-60
2023/01/22 15:24:33;;;;;;;;;;;;;;;;;;5084323;28;19977;-60
2023/01/22 15:26:59;;;;;;;;;;;;;;;;;;5079554;28;19936;-61
2023/01/22 15:29:25;;;;;;;;;;;;;;;;;;5085726;28;20002;-61
2023/01/22 15:31:51;;;;;;;;;;;;;;;;;;5080548;28;19920;-60
2023/01/22 15:34:18;;;;;;;;;;;;;;;;;;5086215;28;19920;-60
2023/01/22 15:36:44;;;;;;;;;;;;;;;;;;5080274;28;19920;-61
2023/01/22 15:39:10;;;;;;;;;;;;;;;;;;5082318;28;19920;-62
2023/01/22 15:41:36;;;;;;;;;;;;;;;;;;5085705;28;20006;-61
2023/01/22 15:44:02;;;;;;;;;;;;;;;;;;5087023;28;19923;-62
2023/01/22 15:46:27;;;;;;;;;;;;;;;;;;5087193;28;19931;-62
2023/01/22 15:48:53;;;;;;;;;;;;;;;;;;5087757;28;19941;-60
2023/01/22 15:51:19;;;;;;;;;;;;;;;;;;5085774;28;19912;-60
2023/01/22 15:53:45;;;;;;;;;;;;;;;;;;5086741;28;19947;-60
2023/01/22 15:56:11;;;;;;;;;;;;;;;;;;5085459;28;19916;-61
2023/01/22 15:58:37;;;;;;;;;;;;;;;;;;5084876;28;20079;-61
2023/01/22 16:01:03;;;;;;;;;;;;;;;;;;5086670;28;19916;-59
2023/01/22 16:03:29;;;;;;;;;;;;;;;;;;5080713;28;20297;-61
2023/01/22 16:05:55;;;;;;;;;;;;;;;;;;5086688;28;19963;-61
2023/01/22 16:08:21;;;;;;;;;;;;;;;;;;5086754;28;20265;-60
2023/01/22 16:10:46;;;;;;;;;;;;;;;;;;5087557;28;19934;-60
2023/01/22 16:13:12;;;;;;;;;;;;;;;;;;5084385;28;19950;-60
2023/01/22 16:15:38;;;;;;;;;;;;;;;;;;5084207;28;19916;-60
2023/01/22 16:18:04;;;;;;;;;;;;;;;;;;5084359;28;21219;-61
2023/01/22 16:20:30;;;;;;;;;;;;;;;;;;5086766;28;19912;-61
2023/01/22 16:22:56;;;;;;;;;;;;;;;;;;5083075;28;20669;-60
2023/01/22 16:25:22;;;;;;;;;;;;;;;;;;5083260;28;19916;-60
2023/01/22 16:27:48;;;;;;;;;;;;;;;;;;5084405;28;19922;-61
2023/01/22 16:30:14;;;;;;;;;;;;;;;;;;5086851;28;20388;-61
2023/01/22 16:32:41;;;;;;;;;;;;;;;;;;5087656;28;19915;-61
2023/01/22 16:35:07;;;;;;;;;;;;;;;;;;5088395;28;19908;-61
2023/01/22 16:37:33;;;;;;;;;;;;;;;;;;5087992;28;19912;-61
2023/01/22 16:39:59;;;;;;;;;;;;;;;;;;5066826;28;19998;-61
2023/01/22 16:42:25;;;;;;;;;;;;;;;;;;5086744;28;19970;-61
2023/01/22 16:44:51;;;;;;;;;;;;;;;;;;5087076;28;19955;-61